Time;durP1;ratioP1;P1;durP2;ratioP2;P2;SDS_P1;SDS_P2;PMS_P1;PMS_P2;Temp;Humidity;BMP_temperature;BMP_pressure;BME280_temperature;BME280_humidity;BME280_pressure;Samples;Min_cycle;Max_cycle;Signal;HPM_P1;HPM_P2
2022/08/16 00:00:12;;;;;;;5.37;4.10;;;16.50;99.90;;;;;;4892130;29;20442;-80
2022/08/16 00:02:38;;;;;;;5.83;4.20;;;16.40;99.90;;;;;;4892426;29;20435;-80
2022/08/16 00:05:07;;;;;;;4.67;4.30;;;16.30;99.90;;;;;;4888633;29;20474;-80
2022/08/16 00:07:32;;;;;;;4.87;4.00;;;16.30;99.90;;;;;;4890110;29;20183;-80
2022/08/16 00:09:58;;;;;;;4.17;3.77;;;16.40;99.90;;;;;;4895251;29;20443;-81
2022/08/16 00:12:29;;;;;;;5.60;5.10;;;16.40;99.90;;;;;;4892889;29;20279;-80
2022/08/16 00:14:57;;;;;;;4.70;4.40;;;16.30;99.90;;;;;;4892052;29;20455;-80
2022/08/16 00:17:24;;;;;;;6.27;4.30;;;16.30;99.90;;;;;;4902439;29;21555;-81
2022/08/16 00:19:50;;;;;;;5.17;4.67;;;16.30;99.90;;;;;;4904257;29;21591;-81
2022/08/16 00:22:16;;;;;;;4.73;4.20;;;16.20;99.90;;;;;;4901556;29;20793;-80
2022/08/16 00:24:43;;;;;;;5.33;4.10;;;16.20;99.90;;;;;;4889786;29;20439;-80
2022/08/16 00:27:09;;;;;;;4.83;4.40;;;16.30;99.90;;;;;;4906675;29;20191;-81
2022/08/16 00:29:34;;;;;;;4.70;4.30;;;16.30;99.90;;;;;;4893744;29;20469;-80
2022/08/16 00:32:02;;;;;;;4.80;4.30;;;16.30;99.90;;;;;;4895348;29;20192;-81
2022/08/16 00:34:28;;;;;;;5.37;3.93;;;16.30;99.90;;;;;;4918261;29;20198;-81
2022/08/16 00:36:54;;;;;;;4.43;3.97;;;16.30;99.90;;;;;;4923013;29;20491;-81
2022/08/16 00:39:20;;;;;;;4.70;4.30;;;16.40;99.90;;;;;;4902496;29;20443;-81
2022/08/16 00:41:48;;;;;;;4.77;4.47;;;16.40;99.90;;;;;;4893382;29;20188;-80
2022/08/16 00:44:16;;;;;;;5.47;4.97;;;16.50;99.90;;;;;;4908938;29;21143;-81
2022/08/16 00:47:03;;;;;;;4.13;3.83;;;16.40;99.90;;;;;;4905243;29;20491;-80
2022/08/16 00:49:29;;;;;;;5.47;4.33;;;16.30;99.90;;;;;;4888260;29;20503;-81
2022/08/16 00:51:55;;;;;;;5.73;4.43;;;16.30;99.90;;;;;;4888669;29;20850;-81
2022/08/16 00:54:23;;;;;;;4.87;4.47;;;16.30;99.90;;;;;;4890431;29;20195;-81
2022/08/16 00:56:50;;;;;;;5.23;4.83;;;16.20;99.90;;;;;;4890388;29;20234;-81
2022/08/16 00:59:18;;;;;;;4.13;3.83;;;16.10;99.90;;;;;;4889661;29;20445;-81
2022/08/16 01:01:44;;;;;;;5.07;4.67;;;16.10;99.90;;;;;;4886519;29;20455;-81
2022/08/16 01:04:12;;;;;;;4.80;4.47;;;16.10;99.90;;;;;;4881385;29;20472;-81
2022/08/16 01:06:41;;;;;;;5.87;5.37;;;16.10;99.90;;;;;;4896081;29;22561;-81
2022/08/16 01:09:07;;;;;;;5.23;4.83;;;16.00;99.90;;;;;;4890758;29;20518;-79
2022/08/16 01:11:36;;;;;;;5.53;5.00;;;15.90;99.90;;;;;;4892423;29;20615;-81
2022/08/16 01:14:30;;;;;;;5.40;4.90;;;15.90;99.90;;;;;;4908538;29;20475;-81
2022/08/16 01:16:57;;;;;;;4.97;4.57;;;15.90;99.90;;;;;;4883177;29;20484;-81
2022/08/16 01:19:28;;;;;;;9.90;5.23;;;16.00;99.90;;;;;;4885996;29;20436;-81
2022/08/16 01:22:10;;;;;;;4.83;4.53;;;15.90;99.90;;;;;;4886265;29;20451;-80
2022/08/16 01:24:45;;;;;;;4.90;4.50;;;15.90;99.90;;;;;;4888077;29;20525;-81
2022/08/16 01:27:21;;;;;;;4.80;4.30;;;16.00;99.90;;;;;;4894359;29;20475;-82
2022/08/16 01:29:55;;;;;;;4.97;4.40;;;16.10;99.90;;;;;;4886969;29;20463;-81
2022/08/16 01:32:21;;;;;;;5.47;4.87;;;16.00;99.90;;;;;;4906508;29;20538;-81
2022/08/16 01:34:46;;;;;;;6.93;4.80;;;15.90;99.90;;;;;;4887463;29;20800;-81
2022/08/16 01:37:13;;;;;;;8.03;5.03;;;15.90;99.90;;;;;;4881794;29;20302;-81
2022/08/16 01:39:58;;;;;;;5.90;4.80;;;15.80;99.90;;;;;;4898291;29;20180;-81
2022/08/16 01:42:23;;;;;;;6.27;5.63;;;15.90;99.90;;;;;;4892600;29;20881;-81
2022/08/16 01:44:49;;;;;;;5.90;5.40;;;15.80;99.90;;;;;;4900065;29;20197;-81
2022/08/16 01:47:14;;;;;;;5.80;5.30;;;15.90;99.90;;;;;;4899526;29;20180;-81
2022/08/16 01:49:43;;;;;;;5.10;4.70;;;15.80;99.90;;;;;;4888631;29;20263;-81
2022/08/16 01:52:14;;;;;;;4.97;4.57;;;15.90;99.90;;;;;;4905878;29;20198;-81
2022/08/16 01:54:40;;;;;;;5.20;4.70;;;15.90;99.90;;;;;;4884998;29;20487;-81
2022/08/16 01:57:07;;;;;;;7.10;5.33;;;16.00;99.90;;;;;;4888648;29;21027;-80
2022/08/16 01:59:34;;;;;;;5.43;4.93;;;16.10;99.90;;;;;;4905832;29;20188;-80
2022/08/16 02:02:00;;;;;;;5.13;4.73;;;16.00;99.90;;;;;;4903851;29;21139;-80
2022/08/16 02:04:26;;;;;;;5.30;4.80;;;16.20;99.90;;;;;;4885418;29;20453;-80
2022/08/16 02:06:52;;;;;;;5.40;5.00;;;16.30;99.90;;;;;;4897890;29;21217;-80
2022/08/16 02:09:21;;;;;;;4.90;4.60;;;16.40;99.90;;;;;;4885205;29;21249;-80
2022/08/16 02:11:50;;;;;;;5.60;5.10;;;16.40;99.90;;;;;;4890694;29;20191;-81
2022/08/16 02:14:16;;;;;;;5.60;5.10;;;16.50;99.90;;;;;;4914483;29;20435;-80
2022/08/16 02:16:43;;;;;;;5.63;5.13;;;16.50;99.90;;;;;;4906688;29;20540;-81
2022/08/16 02:19:12;;;;;;;5.53;4.73;;;16.60;99.90;;;;;;4887307;29;20199;-81
2022/08/16 02:21:38;;;;;;;5.30;4.80;;;16.60;99.90;;;;;;4886602;29;20447;-80
2022/08/16 02:24:06;;;;;;;5.23;4.83;;;16.70;99.90;;;;;;4887248;29;20502;-81
2022/08/16 02:26:31;;;;;;;6.00;5.47;;;16.80;99.90;;;;;;4890654;29;20484;-81
2022/08/16 02:28:58;;;;;;;5.23;4.80;;;16.80;99.90;;;;;;4903886;29;20272;-80
2022/08/16 02:31:23;;;;;;;5.90;4.90;;;16.80;99.90;;;;;;4909931;29;20680;-80
2022/08/16 02:33:49;;;;;;;5.97;5.47;;;16.60;99.90;;;;;;4887575;29;20428;-81
2022/08/16 02:36:15;;;;;;;5.57;5.07;;;16.50;99.90;;;;;;4895635;29;20305;-81
2022/08/16 02:38:41;;;;;;;5.97;5.37;;;16.30;99.90;;;;;;4887860;29;20188;-81
2022/08/16 02:41:08;;;;;;;6.70;5.27;;;16.20;99.90;;;;;;4907576;29;20464;-81
2022/08/16 02:43:35;;;;;;;5.40;4.90;;;16.10;99.90;;;;;;4907314;29;20731;-81
2022/08/16 02:46:02;;;;;;;5.30;4.80;;;16.20;99.90;;;;;;4917812;29;20455;-82
2022/08/16 02:48:29;;;;;;;7.70;4.90;;;16.30;99.90;;;;;;4898073;29;20450;-81
2022/08/16 02:50:56;;;;;;;5.97;5.47;;;16.40;99.90;;;;;;4892676;29;20455;-80
2022/08/16 02:53:23;;;;;;;5.77;5.20;;;16.40;99.90;;;;;;4907945;29;20458;-81
2022/08/16 02:55:48;;;;;;;5.23;4.93;;;16.30;99.90;;;;;;4888250;29;20567;-81
2022/08/16 02:58:14;;;;;;;5.80;5.30;;;16.30;99.90;;;;;;4905113;29;20446;-82
2022/08/16 03:00:39;;;;;;;6.23;5.43;;;16.30;99.90;;;;;;4890288;29;20746;-81
2022/08/16 03:03:05;;;;;;;5.23;4.73;;;16.30;99.90;;;;;;4906877;29;20213;-81
2022/08/16 03:05:31;;;;;;;8.10;7.23;;;16.20;99.90;;;;;;4890898;29;20670;-81
2022/08/16 03:07:57;;;;;;;5.50;5.00;;;16.10;99.90;;;;;;4888025;29;20192;-81
2022/08/16 03:10:23;;;;;;;5.80;5.30;;;16.10;99.90;;;;;;4896827;29;20439;-81
2022/08/16 03:12:49;;;;;;;5.87;4.80;;;16.20;99.90;;;;;;4907266;29;21406;-81
2022/08/16 03:15:16;;;;;;;5.67;4.90;;;16.20;99.90;;;;;;4892896;29;20240;-81
2022/08/16 03:17:43;;;;;;;5.60;5.20;;;16.20;99.90;;;;;;4905030;29;20483;-81
2022/08/16 03:20:10;;;;;;;5.20;4.80;;;16.20;99.90;;;;;;4899658;29;20435;-80
2022/08/16 03:22:37;;;;;;;5.10;4.70;;;16.20;99.90;;;;;;4904494;29;21111;-81
2022/08/16 03:25:05;;;;;;;5.03;4.53;;;16.30;99.90;;;;;;4902052;29;20542;-81
2022/08/16 03:27:32;;;;;;;6.40;5.80;;;16.20;99.90;;;;;;4887272;29;20443;-81
2022/08/16 03:30:08;;;;;;;7.10;5.70;;;16.20;99.90;;;;;;4908813;29;20439;-81
2022/08/16 03:32:34;;;;;;;6.80;4.77;;;16.20;99.90;;;;;;4909127;29;20443;-81
2022/08/16 03:35:02;;;;;;;6.47;5.87;;;16.20;99.90;;;;;;4886663;29;20519;-80
2022/08/16 03:37:28;;;;;;;6.07;5.47;;;16.20;99.90;;;;;;4904491;29;20348;-81
2022/08/16 03:39:54;;;;;;;5.70;5.30;;;16.30;99.90;;;;;;4891040;29;21238;-81
2022/08/16 03:42:20;;;;;;;5.80;5.30;;;16.40;99.90;;;;;;4896426;29;21856;-81
2022/08/16 03:44:45;;;;;;;5.70;5.30;;;16.50;99.90;;;;;;4885401;29;20483;-81
2022/08/16 03:47:11;;;;;;;9.00;5.70;;;16.50;99.90;;;;;;4888200;29;20641;-81
2022/08/16 03:49:36;;;;;;;5.53;5.03;;;16.40;99.90;;;;;;4888575;29;20278;-81
2022/08/16 03:52:02;;;;;;;6.07;5.57;;;16.30;99.90;;;;;;4908078;29;20200;-81
2022/08/16 03:54:28;;;;;;;7.10;5.57;;;16.30;99.90;;;;;;4888861;29;20191;-80
2022/08/16 03:56:54;;;;;;;5.63;5.20;;;16.30;99.90;;;;;;4890427;29;22085;-81
2022/08/16 03:59:19;;;;;;;5.77;5.30;;;16.40;99.90;;;;;;4911176;29;20244;-81
2022/08/16 04:01:45;;;;;;;5.37;4.67;;;16.30;99.90;;;;;;4893940;29;20195;-81
2022/08/16 04:04:10;;;;;;;5.37;4.97;;;16.10;99.90;;;;;;4901015;29;20630;-81
2022/08/16 04:06:36;;;;;;;6.67;5.50;;;15.90;99.90;;;;;;4888124;29;20618;-81
2022/08/16 04:09:01;;;;;;;5.70;5.10;;;15.80;99.90;;;;;;4888700;29;20249;-81
2022/08/16 04:11:27;;;;;;;6.27;5.67;;;15.80;99.90;;;;;;4888799;29;20195;-81
2022/08/16 04:13:52;;;;;;;5.60;5.10;;;15.80;99.90;;;;;;4895360;29;20280;-81
2022/08/16 04:16:19;;;;;;;5.70;5.30;;;15.80;99.90;;;;;;4904346;29;20238;-82
2022/08/16 04:18:45;;;;;;;5.67;5.17;;;15.80;99.90;;;;;;4910584;29;20180;-80
2022/08/16 04:21:11;;;;;;;6.13;5.53;;;15.80;99.90;;;;;;4908795;29;20444;-81
2022/08/16 04:23:37;;;;;;;6.20;5.60;;;15.70;99.90;;;;;;4891141;29;20192;-82
2022/08/16 04:26:05;;;;;;;5.70;5.20;;;15.70;99.90;;;;;;4904081;29;20195;-81
2022/08/16 04:28:31;;;;;;;5.83;5.43;;;15.70;99.90;;;;;;4914698;29;20804;-81
2022/08/16 04:30:56;;;;;;;5.67;5.27;;;15.70;99.90;;;;;;4918006;29;20444;-81
2022/08/16 04:33:22;;;;;;;5.70;5.20;;;15.60;99.90;;;;;;4908037;29;20665;-81
2022/08/16 04:35:47;;;;;;;8.17;5.70;;;15.60;99.90;;;;;;4917298;29;20199;-81
2022/08/16 04:38:13;;;;;;;5.93;5.43;;;15.70;99.90;;;;;;4891908;29;20577;-81
2022/08/16 04:40:38;;;;;;;5.57;5.10;;;15.70;99.90;;;;;;4882410;29;20381;-81
2022/08/16 04:43:04;;;;;;;5.70;5.20;;;15.80;99.90;;;;;;4890827;29;20610;-81
2022/08/16 04:45:29;;;;;;;5.93;5.20;;;15.90;99.90;;;;;;4908266;29;20642;-81
2022/08/16 04:47:55;;;;;;;7.27;6.10;;;15.90;99.90;;;;;;4901138;29;20891;-81
2022/08/16 04:50:23;;;;;;;6.87;6.20;;;15.90;99.90;;;;;;4882989;29;20267;-81
2022/08/16 04:52:50;;;;;;;5.87;5.13;;;15.90;99.90;;;;;;4900447;29;20251;-80
2022/08/16 04:55:19;;;;;;;6.13;5.47;;;16.00;99.90;;;;;;4879007;29;21025;-81
2022/08/16 04:57:47;;;;;;;6.50;5.90;;;15.90;99.90;;;;;;4893135;29;20567;-81
2022/08/16 05:00:18;;;;;;;5.87;5.47;;;16.00;99.90;;;;;;4875716;29;20446;-81
2022/08/16 05:02:46;;;;;;;6.53;5.90;;;16.10;99.90;;;;;;4892755;29;20452;-82
2022/08/16 05:05:11;;;;;;;6.63;5.97;;;16.20;99.90;;;;;;4878442;29;20506;-82
2022/08/16 05:07:37;;;;;;;6.30;5.80;;;16.30;99.90;;;;;;4900128;29;20447;-82
2022/08/16 05:10:05;;;;;;;5.50;5.10;;;16.40;99.90;;;;;;4901605;29;20198;-81
2022/08/16 05:12:31;;;;;;;5.30;4.70;;;16.60;99.90;;;;;;4884403;29;20211;-82
2022/08/16 05:14:57;;;;;;;6.83;6.23;;;16.80;99.90;;;;;;4904182;29;20439;-80
2022/08/16 05:17:23;;;;;;;6.37;5.77;;;16.90;99.90;;;;;;4904707;29;20502;-81
2022/08/16 05:19:49;;;;;;;7.23;5.60;;;16.90;99.90;;;;;;4914205;29;20209;-82
2022/08/16 05:22:15;;;;;;;6.23;5.60;;;17.00;99.90;;;;;;4889048;29;20957;-81
2022/08/16 05:24:40;;;;;;;6.17;5.63;;;17.00;99.90;;;;;;4885033;29;20756;-81
2022/08/16 05:27:06;;;;;;;6.00;5.40;;;17.00;99.90;;;;;;4901099;29;20189;-82
2022/08/16 05:29:32;;;;;;;5.83;5.00;;;17.10;99.90;;;;;;4907709;29;20206;-81
2022/08/16 05:31:57;;;;;;;6.00;5.50;;;17.20;99.90;;;;;;4902192;29;20309;-80
2022/08/16 05:34:23;;;;;;;6.30;5.70;;;17.30;99.90;;;;;;4910368;29;20496;-80
2022/08/16 05:36:49;;;;;;;6.33;5.80;;;17.20;99.90;;;;;;4894770;29;20211;-81
2022/08/16 05:39:15;;;;;;;6.37;5.80;;;17.10;99.90;;;;;;4904012;29;20443;-81
2022/08/16 05:41:41;;;;;;;6.50;5.83;;;17.10;99.90;;;;;;4910333;29;20816;-81
2022/08/16 05:44:06;;;;;;;7.17;6.03;;;17.00;99.90;;;;;;4887902;29;21818;-81
2022/08/16 05:46:35;;;;;;;6.70;6.10;;;17.10;99.90;;;;;;4887660;29;20722;-80
2022/08/16 05:49:01;;;;;;;6.90;6.03;;;17.10;99.90;;;;;;4893232;29;20252;-82
2022/08/16 05:51:26;;;;;;;5.70;5.30;;;17.20;99.90;;;;;;4900696;29;20446;-82
2022/08/16 05:53:52;;;;;;;6.60;6.00;;;17.30;99.90;;;;;;4911198;29;20713;-81
2022/08/16 05:56:17;;;;;;;8.70;5.70;;;17.40;99.90;;;;;;4903727;29;20926;-81
2022/08/16 05:58:43;;;;;;;6.57;5.97;;;17.50;99.90;;;;;;4890906;29;20190;-81
2022/08/16 06:01:09;;;;;;;6.90;6.30;;;17.70;99.90;;;;;;4893047;29;20673;-81
2022/08/16 06:03:35;;;;;;;5.87;5.13;;;17.80;99.90;;;;;;4891308;29;20327;-81
2022/08/16 06:06:01;;;;;;;7.00;6.40;;;17.90;99.90;;;;;;4909460;29;21743;-82
2022/08/16 06:08:27;;;;;;;11.03;6.33;;;18.00;99.90;;;;;;4890812;29;20522;-81
2022/08/16 06:10:52;;;;;;;6.37;5.87;;;18.30;99.90;;;;;;4910093;29;20299;-81
2022/08/16 06:13:18;;;;;;;6.00;5.50;;;18.30;99.90;;;;;;4895136;29;20228;-81
2022/08/16 06:15:44;;;;;;;7.57;6.97;;;18.40;99.90;;;;;;4896645;29;20191;-82
2022/08/16 06:18:09;;;;;;;6.37;5.87;;;18.50;99.90;;;;;;4895123;29;20196;-81
2022/08/16 06:20:37;;;;;;;6.47;5.97;;;18.60;99.90;;;;;;4898288;29;20661;-82
2022/08/16 06:23:08;;;;;;;6.03;5.43;;;18.60;99.90;;;;;;4897452;29;20199;-82
2022/08/16 06:25:33;;;;;;;7.07;6.47;;;18.50;99.90;;;;;;4897012;29;20543;-81
2022/08/16 06:27:59;;;;;;;6.70;6.00;;;18.50;99.90;;;;;;4895559;29;20475;-81
2022/08/16 06:30:25;;;;;;;6.80;6.20;;;18.80;99.90;;;;;;4911507;29;20179;-81
2022/08/16 06:32:50;;;;;;;6.47;5.73;;;18.80;99.90;;;;;;4895458;29;20195;-81
2022/08/16 06:35:16;;;;;;;7.53;6.80;;;18.90;99.90;;;;;;4903729;29;20258;-81
2022/08/16 06:37:42;;;;;;;6.40;5.93;;;18.90;99.90;;;;;;4902137;29;21861;-81
2022/08/16 06:40:09;;;;;;;6.43;5.83;;;19.00;99.90;;;;;;4895622;29;20793;-81
2022/08/16 06:42:35;;;;;;;6.73;6.13;;;18.90;99.90;;;;;;4896759;29;20274;-81
2022/08/16 06:45:01;;;;;;;6.40;5.90;;;19.10;99.90;;;;;;4905305;29;20446;-81
2022/08/16 06:47:27;;;;;;;7.17;6.50;;;19.10;99.90;;;;;;4889551;29;20176;-81
2022/08/16 06:49:52;;;;;;;6.40;5.90;;;19.20;99.90;;;;;;4905761;29;20461;-81
2022/08/16 06:52:18;;;;;;;6.50;6.00;;;19.10;99.90;;;;;;4901653;29;20761;-81
2022/08/16 06:54:44;;;;;;;7.03;6.43;;;19.10;99.90;;;;;;4909379;29;20202;-81
2022/08/16 06:57:10;;;;;;;7.53;6.83;;;19.10;99.90;;;;;;4910367;29;20230;-81
2022/08/16 06:59:38;;;;;;;6.10;5.60;;;19.10;99.90;;;;;;4888678;29;20191;-81
2022/08/16 07:02:07;;;;;;;6.63;6.13;;;19.10;99.90;;;;;;4897275;29;20959;-81
2022/08/16 07:04:32;;;;;;;6.50;6.00;;;19.20;99.90;;;;;;4905693;29;20574;-81
2022/08/16 07:06:58;;;;;;;6.63;6.13;;;19.30;99.90;;;;;;4900329;29;20470;-81
2022/08/16 07:09:23;;;;;;;6.50;5.77;;;19.30;99.90;;;;;;4887678;29;20191;-81
2022/08/16 07:11:49;;;;;;;6.13;5.57;;;19.40;99.90;;;;;;4885761;29;20647;-81
2022/08/16 07:14:18;;;;;;;6.40;5.80;;;19.50;99.90;;;;;;4908410;29;20195;-81
2022/08/16 07:16:43;;;;;;;6.60;6.03;;;19.60;99.90;;;;;;4904326;29;20311;-81
2022/08/16 07:19:09;;;;;;;6.70;6.07;;;19.70;99.90;;;;;;4892918;29;20538;-81
2022/08/16 07:21:35;;;;;;;7.07;6.50;;;19.80;99.90;;;;;;4909631;29;20192;-81
2022/08/16 07:24:02;;;;;;;7.40;6.90;;;20.00;99.90;;;;;;4891684;29;20554;-81
2022/08/16 07:26:28;;;;;;;7.10;6.47;;;20.10;99.90;;;;;;4906611;29;20466;-81
2022/08/16 07:28:54;;;;;;;7.17;6.43;;;20.20;99.90;;;;;;4909651;29;20443;-82
2022/08/16 07:31:20;;;;;;;7.30;6.73;;;20.20;99.90;;;;;;4897371;29;20515;-81
2022/08/16 07:34:01;;;;;;;7.07;6.50;;;20.40;99.90;;;;;;4885065;29;20681;-82
2022/08/16 07:36:27;;;;;;;7.27;6.77;;;20.50;99.90;;;;;;4907105;29;20489;-81
2022/08/16 07:38:53;;;;;;;7.23;6.40;;;20.50;99.90;;;;;;4903619;29;20447;-81
2022/08/16 07:41:18;;;;;;;6.90;6.37;;;20.50;99.90;;;;;;4910263;29;21142;-81
2022/08/16 07:43:45;;;;;;;6.83;6.20;;;20.60;99.90;;;;;;4906168;29;20194;-81
2022/08/16 07:46:11;;;;;;;7.40;6.70;;;20.70;99.90;;;;;;4892413;29;20192;-81
2022/08/16 07:48:36;;;;;;;6.90;6.30;;;20.90;99.90;;;;;;4897073;29;20440;-81
2022/08/16 07:51:02;;;;;;;7.17;6.47;;;21.00;99.90;;;;;;4909390;29;20543;-81
2022/08/16 07:53:29;;;;;;;6.87;6.30;;;21.10;99.90;;;;;;4912050;29;20190;-81
2022/08/16 07:55:56;;;;;;;6.30;5.90;;;21.30;99.90;;;;;;4904353;29;20628;-82
2022/08/16 07:58:21;;;;;;;7.00;6.40;;;21.50;99.90;;;;;;4905194;29;21480;-81
2022/08/16 08:00:47;;;;;;;6.77;6.27;;;21.60;99.90;;;;;;4902167;29;20463;-81
2022/08/16 08:03:12;;;;;;;7.17;6.60;;;21.60;99.90;;;;;;4909307;29;21498;-81
2022/08/16 08:05:39;;;;;;;6.60;6.00;;;21.70;99.90;;;;;;4894913;29;20195;-81
2022/08/16 08:08:05;;;;;;;7.67;6.90;;;21.80;99.90;;;;;;4912894;29;20215;-81
2022/08/16 08:10:30;;;;;;;7.43;6.83;;;21.90;99.90;;;;;;4900731;29;21003;-81
2022/08/16 08:12:56;;;;;;;6.83;6.33;;;22.10;99.90;;;;;;4895980;29;20443;-82
2022/08/16 08:15:23;;;;;;;7.27;6.67;;;22.10;99.90;;;;;;4916232;29;20195;-81
2022/08/16 08:17:50;;;;;;;6.53;6.13;;;22.00;99.90;;;;;;4898992;29;20254;-89
2022/08/16 08:20:19;;;;;;;7.80;7.30;;;22.00;99.90;;;;;;4902457;29;21854;-87
2022/08/16 08:22:47;;;;;;;7.83;7.13;;;22.10;99.90;;;;;;4888637;29;20453;-87
2022/08/16 08:25:14;;;;;;;7.90;7.10;;;22.40;99.90;;;;;;4901715;29;20444;-87
2022/08/16 08:27:41;;;;;;;7.47;6.87;;;22.60;99.90;;;;;;4909840;29;20507;-87
2022/08/16 08:30:09;;;;;;;7.20;6.70;;;22.70;99.90;;;;;;4911750;29;20498;-87
2022/08/16 08:32:36;;;;;;;6.57;6.07;;;22.70;99.90;;;;;;4901619;29;20443;-86
2022/08/16 08:35:02;;;;;;;7.20;6.70;;;22.90;99.90;;;;;;4916991;29;20528;-86
2022/08/16 08:37:27;;;;;;;8.07;7.37;;;23.10;99.90;;;;;;4888679;29;20483;-87
2022/08/16 08:39:54;;;;;;;6.83;6.33;;;23.10;99.90;;;;;;4898672;29;20959;-87
2022/08/16 08:42:20;;;;;;;7.43;6.83;;;23.40;99.90;;;;;;4890676;29;20198;-87
2022/08/16 08:44:45;;;;;;;7.40;6.80;;;23.60;99.90;;;;;;4890440;29;20443;-87
2022/08/16 08:47:22;;;;;;;7.40;6.80;;;23.60;99.90;;;;;;4895154;29;20730;-87
2022/08/16 08:49:48;;;;;;;7.40;6.90;;;23.70;99.90;;;;;;4900571;29;20820;-84
2022/08/16 08:52:14;;;;;;;7.37;6.87;;;23.70;99.90;;;;;;4898958;29;20858;-84
2022/08/16 08:54:40;;;;;;;7.00;6.50;;;23.70;99.90;;;;;;4891271;29;20243;-84
2022/08/16 08:57:06;;;;;;;8.20;7.50;;;23.80;99.70;;;;;;4892014;29;20298;-84
2022/08/16 08:59:32;;;;;;;6.93;6.53;;;23.90;98.50;;;;;;4902555;29;20454;-84
2022/08/16 09:01:58;;;;;;;6.90;6.40;;;24.20;99.90;;;;;;4892131;29;20211;-84
2022/08/16 09:04:25;;;;;;;7.27;6.53;;;24.50;97.30;;;;;;4876055;29;20455;-83
2022/08/16 09:07:06;;;;;;;7.60;7.00;;;24.40;98.30;;;;;;4873578;29;20940;-83
2022/08/16 09:09:32;;;;;;;7.90;7.20;;;24.60;97.80;;;;;;4884739;29;20475;-84
2022/08/16 09:11:57;;;;;;;7.27;6.77;;;24.80;99.10;;;;;;4901856;29;20230;-84
2022/08/16 09:14:23;;;;;;;7.40;6.90;;;24.90;96.70;;;;;;4907421;29;20203;-84
2022/08/16 09:16:50;;;;;;;7.10;6.60;;;24.80;98.40;;;;;;4886692;29;20509;-84
2022/08/16 09:19:16;;;;;;;7.50;6.90;;;24.80;97.70;;;;;;4887993;29;20554;-83
2022/08/16 09:21:42;;;;;;;7.47;6.97;;;25.00;96.20;;;;;;4901745;29;20508;-81
2022/08/16 09:24:07;;;;;;;7.10;6.60;;;25.10;96.00;;;;;;4889128;29;21031;-81
2022/08/16 09:26:36;;;;;;;7.47;6.80;;;25.00;95.70;;;;;;4893510;29;20688;-82
2022/08/16 09:29:05;;;;;;;7.27;6.67;;;24.30;96.60;;;;;;4901642;29;20278;-82
2022/08/16 09:31:31;;;;;;;7.53;6.93;;;24.00;96.90;;;;;;4886292;29;20965;-81
2022/08/16 09:33:56;;;;;;;7.80;7.07;;;23.90;99.40;;;;;;4901712;29;20199;-81
2022/08/16 09:36:22;;;;;;;7.00;6.50;;;24.20;98.50;;;;;;4894119;29;20745;-81
2022/08/16 09:38:47;;;;;;;8.00;7.30;;;24.70;95.90;;;;;;4899712;29;20661;-81
2022/08/16 09:41:13;;;;;;;7.73;7.17;;;24.60;95.70;;;;;;4906453;29;20183;-81
2022/08/16 09:43:39;;;;;;;7.50;7.00;;;24.40;96.00;;;;;;4895640;29;20554;-81
2022/08/16 09:46:06;;;;;;;8.97;7.10;;;24.20;96.40;;;;;;4889422;29;20226;-81
2022/08/16 09:48:33;;;;;;;8.00;7.37;;;24.00;96.00;;;;;;4891571;29;20187;-81
2022/08/16 09:50:58;;;;;;;8.40;6.93;;;23.90;96.30;;;;;;4903924;29;20447;-81
2022/08/16 09:53:25;;;;;;;6.97;6.53;;;23.70;96.20;;;;;;4885187;29;20451;-82
2022/08/16 09:55:56;;;;;;;7.87;7.27;;;23.90;97.30;;;;;;4886882;29;20190;-81
2022/08/16 09:58:25;;;;;;;7.57;6.40;;;24.20;95.60;;;;;;4913637;29;20647;-81
2022/08/16 10:00:53;;;;;;;7.53;6.87;;;24.10;95.50;;;;;;4886745;29;20451;-80
2022/08/16 10:03:19;;;;;;;7.83;7.00;;;23.90;96.00;;;;;;4894036;29;20993;-80
2022/08/16 10:05:45;;;;;;;7.67;7.13;;;23.80;96.20;;;;;;4887903;29;20448;-81
2022/08/16 10:08:11;;;;;;;7.00;6.50;;;23.90;97.40;;;;;;4889496;29;20487;-81
2022/08/16 10:10:40;;;;;;;6.63;6.13;;;24.00;96.30;;;;;;4890561;29;20834;-80
2022/08/16 10:13:13;;;;;;;7.87;7.27;;;24.20;95.10;;;;;;4880958;29;20928;-81
2022/08/16 10:15:44;;;;;;;7.80;7.17;;;24.40;95.80;;;;;;4872683;29;20587;-81
2022/08/16 10:18:12;;;;;;;6.80;6.30;;;25.10;98.30;;;;;;4885911;29;20525;-82
2022/08/16 10:20:44;;;;;;;7.13;6.53;;;25.80;94.60;;;;;;4908404;29;20447;-81
2022/08/16 10:23:14;;;;;;;6.80;6.30;;;26.20;92.20;;;;;;4891354;29;20456;-81
2022/08/16 10:25:43;;;;;;;7.10;6.47;;;26.50;92.40;;;;;;4911889;29;20440;-81
2022/08/16 10:28:10;;;;;;;7.03;6.53;;;26.50;90.80;;;;;;4911415;29;20797;-82
2022/08/16 10:30:37;;;;;;;6.47;6.00;;;26.60;91.60;;;;;;4914598;29;20452;-82
2022/08/16 10:33:04;;;;;;;6.63;6.23;;;26.80;91.80;;;;;;4890409;29;20446;-81
2022/08/16 10:35:30;;;;;;;6.53;6.03;;;26.70;90.00;;;;;;4897667;29;21124;-82
2022/08/16 10:37:56;;;;;;;6.23;5.63;;;26.40;90.40;;;;;;4896361;29;20490;-82
2022/08/16 10:40:21;;;;;;;7.10;6.50;;;26.60;91.10;;;;;;4914569;29;20458;-81
2022/08/16 10:42:48;;;;;;;6.37;5.97;;;26.80;90.70;;;;;;4913559;29;20549;-81
2022/08/16 10:45:14;;;;;;;6.50;6.10;;;26.00;91.00;;;;;;4895358;29;20989;-82
2022/08/16 10:47:40;;;;;;;7.33;6.73;;;26.20;91.00;;;;;;4887843;29;20803;-83
2022/08/16 10:50:06;;;;;;;6.97;6.47;;;26.70;90.70;;;;;;4908102;29;20447;-82
2022/08/16 10:52:32;;;;;;;6.60;6.10;;;27.00;91.30;;;;;;4894302;29;21170;-82
2022/08/16 10:55:01;;;;;;;6.00;5.50;;;27.00;87.90;;;;;;4903963;29;20453;-82
2022/08/16 10:57:27;;;;;;;6.17;5.77;;;27.00;87.70;;;;;;4909653;29;20287;-81
2022/08/16 10:59:54;;;;;;;7.03;6.07;;;26.40;88.20;;;;;;4907681;29;20443;-81
2022/08/16 11:02:29;;;;;;;6.40;5.43;;;26.60;88.20;;;;;;4900871;29;20443;-81
2022/08/16 11:04:54;;;;;;;5.70;5.20;;;26.60;85.40;;;;;;4890413;29;20936;-82
2022/08/16 11:07:41;;;;;;;5.47;5.07;;;26.80;85.50;;;;;;4900357;29;20863;-81
2022/08/16 11:10:08;;;;;;;5.30;5.00;;;27.20;84.80;;;;;;4885756;29;20263;-81
2022/08/16 11:12:34;;;;;;;6.17;5.73;;;27.40;83.50;;;;;;4899818;29;20499;-82
2022/08/16 11:15:00;;;;;;;5.67;5.00;;;27.50;80.50;;;;;;4894147;29;21126;-81
2022/08/16 11:17:27;;;;;;;6.00;5.40;;;27.70;81.40;;;;;;4901815;29;20227;-82
2022/08/16 11:19:53;;;;;;;5.80;5.40;;;28.10;79.80;;;;;;4894552;29;20993;-81
2022/08/16 11:22:19;;;;;;;5.67;5.13;;;28.30;83.00;;;;;;4912401;29;20483;-81
2022/08/16 11:24:45;;;;;;;5.70;5.20;;;28.10;78.20;;;;;;4909893;29;20917;-82
2022/08/16 11:27:14;;;;;;;5.60;5.20;;;27.90;79.70;;;;;;4889679;29;20270;-82
2022/08/16 11:29:39;;;;;;;6.37;4.80;;;27.70;80.80;;;;;;4888400;29;20440;-82
2022/08/16 11:32:05;;;;;;;5.30;4.90;;;27.70;81.50;;;;;;4886515;29;20455;-82
2022/08/16 11:34:31;;;;;;;5.73;5.20;;;28.10;78.80;;;;;;4904082;29;20219;-82
2022/08/16 11:36:57;;;;;;;7.30;5.87;;;28.40;78.90;;;;;;4900858;29;20228;-82
2022/08/16 11:39:23;;;;;;;5.20;4.90;;;28.80;76.20;;;;;;4891059;29;20689;-81
2022/08/16 11:41:49;;;;;;;5.40;5.00;;;28.00;77.20;;;;;;4899013;29;20451;-82
2022/08/16 11:44:14;;;;;;;5.70;5.20;;;27.70;76.00;;;;;;4910696;29;20191;-82
2022/08/16 11:46:40;;;;;;;5.20;4.90;;;28.20;79.40;;;;;;4889977;29;20860;-81
2022/08/16 11:49:05;;;;;;;6.10;5.00;;;28.20;77.10;;;;;;4891287;29;20269;-82
2022/08/16 11:51:33;;;;;;;4.90;4.50;;;28.00;75.20;;;;;;4901684;29;20202;-81
2022/08/16 11:53:59;;;;;;;5.60;5.10;;;28.10;76.10;;;;;;4907916;29;20183;-82
2022/08/16 11:56:25;;;;;;;5.10;4.80;;;28.20;75.90;;;;;;4903020;29;22213;-82
2022/08/16 11:58:50;;;;;;;5.70;5.20;;;28.30;73.60;;;;;;4889170;29;20447;-82
2022/08/16 12:01:16;;;;;;;5.50;5.10;;;27.90;74.50;;;;;;4909495;29;20836;-81
2022/08/16 12:03:42;;;;;;;5.80;5.30;;;27.80;73.80;;;;;;4908765;29;20202;-82
2022/08/16 12:06:14;;;;;;;5.50;5.00;;;27.90;74.10;;;;;;4891085;28;21311;-81
2022/08/16 12:08:42;;;;;;;4.97;4.50;;;27.80;73.90;;;;;;4889676;29;20466;-81
2022/08/16 12:11:09;;;;;;;4.83;4.33;;;27.70;73.70;;;;;;4898943;29;21056;-82
2022/08/16 12:13:34;;;;;;;4.97;4.57;;;27.90;75.50;;;;;;4886973;29;20439;-81
2022/08/16 12:16:01;;;;;;;4.77;4.43;;;28.00;73.00;;;;;;4888179;29;20565;-82
2022/08/16 12:18:27;;;;;;;4.70;4.40;;;27.70;75.80;;;;;;4906804;29;20192;-81
2022/08/16 12:20:53;;;;;;;4.63;4.33;;;28.10;72.20;;;;;;4896762;29;20486;-82
2022/08/16 12:23:18;;;;;;;4.77;4.37;;;28.40;70.40;;;;;;4903598;29;20581;-81
2022/08/16 12:25:44;;;;;;;5.50;4.90;;;28.60;72.60;;;;;;4892279;29;20922;-82
2022/08/16 12:28:11;;;;;;;5.40;4.90;;;28.70;74.20;;;;;;4889012;29;20325;-81
2022/08/16 12:30:41;;;;;;;5.70;5.20;;;28.70;70.50;;;;;;4901288;29;20466;-81
2022/08/16 12:33:14;;;;;;;5.10;4.53;;;28.40;70.30;;;;;;4915474;29;20447;-82
2022/08/16 12:35:41;;;;;;;5.10;4.70;;;28.40;74.10;;;;;;4900887;29;20470;-82
2022/08/16 12:38:07;;;;;;;5.07;4.67;;;28.80;71.90;;;;;;4901899;29;20570;-81
2022/08/16 12:40:37;;;;;;;5.87;4.80;;;29.00;73.00;;;;;;4924978;29;21044;-81
2022/08/16 12:43:05;;;;;;;5.00;4.50;;;29.00;71.00;;;;;;4920619;29;20278;-81
2022/08/16 12:45:37;;;;;;;5.30;4.80;;;28.90;72.00;;;;;;4907815;29;20446;-81